Terminal Aerodrome Forecast
Issued by NWS

Home | Current Version | Previous Version | Text Only | Print | Product List | Glossary On
Versions: 1 2 3 4 5 6 7 8 9 10 11 12 13 14 15 16 17 18 19 20
000
FTUS41 KGYX 252326
TAFPSM
TAF
KPSM 252326Z 2600/2624 28010G20KT P6SM FEW060
     FM260400 26008KT P6SM FEW250
     FM261400 27010G18KT P6SM SCT080
     FM262000 27008KT P6SM BKN250=

USA.gov is the U.S. government's official web portal to all federal, state and local government web resources and services.